createdAt,value
2019-05-25T00:01:47.473Z,18.08
2019-05-25T00:04:18.471Z,18.01
2019-05-25T00:06:49.476Z,17.90
2019-05-25T00:09:20.392Z,17.85
2019-05-25T00:11:51.414Z,17.85
2019-05-25T00:14:22.520Z,17.83
2019-05-25T00:16:53.516Z,17.82
2019-05-25T00:19:24.524Z,17.80
2019-05-25T00:21:55.516Z,17.75
2019-05-25T00:24:26.470Z,17.72
2019-05-25T00:26:57.460Z,17.71
2019-05-25T00:29:28.394Z,17.71
2019-05-25T00:31:59.337Z,17.75
2019-05-25T00:34:30.469Z,17.76
2019-05-25T00:37:01.466Z,17.80
2019-05-25T00:39:32.389Z,17.82
2019-05-25T00:42:03.463Z,17.84
2019-05-25T00:44:34.383Z,17.80
2019-05-25T00:47:05.516Z,17.77
2019-05-25T00:49:36.485Z,17.73
2019-05-25T00:52:07.599Z,17.71
2019-05-25T00:54:38.557Z,17.71
2019-05-25T00:57:09.581Z,17.71
2019-05-25T00:59:40.663Z,17.77
2019-05-25T01:02:11.682Z,17.79
2019-05-25T01:04:42.722Z,17.79
2019-05-25T01:07:13.707Z,17.79
2019-05-25T01:09:44.673Z,17.80
2019-05-25T01:12:15.647Z,17.81
2019-05-25T01:14:46.662Z,17.81
2019-05-25T01:17:17.656Z,17.81
2019-05-25T01:19:48.784Z,17.81
2019-05-25T01:22:19.795Z,17.80
2019-05-25T01:24:50.881Z,17.77
2019-05-25T01:27:21.981Z,17.76
2019-05-25T01:29:52.903Z,17.69
2019-05-25T01:32:23.923Z,17.68
2019-05-25T01:34:54.849Z,17.69
2019-05-25T01:37:25.934Z,17.72
2019-05-25T01:39:57.012Z,17.72
2019-05-25T01:42:28.070Z,17.75
2019-05-25T01:44:59.013Z,17.70
2019-05-25T01:47:29.990Z,17.71
2019-05-25T01:50:00.974Z,17.70
2019-05-25T01:52:31.929Z,17.68
2019-05-25T01:55:02.812Z,17.67
2019-05-25T01:57:33.804Z,17.66
2019-05-25T02:00:06.663Z,17.68
2019-05-25T02:02:37.790Z,17.63
2019-05-25T02:05:09.084Z,17.66
2019-05-25T02:07:40.023Z,17.69
2019-05-25T02:10:11.029Z,17.70
2019-05-25T02:12:41.994Z,17.72
2019-05-25T02:15:13.236Z,17.77
2019-05-25T02:17:44.227Z,17.87
2019-05-25T02:20:15.295Z,18.07
2019-05-25T02:22:46.342Z,18.21
2019-05-25T02:25:18.777Z,18.25
2019-05-25T02:27:50.206Z,18.21
2019-05-25T02:30:24.170Z,18.22
2019-05-25T02:32:55.216Z,18.18
2019-05-25T02:35:29.607Z,18.25
2019-05-25T02:38:00.623Z,18.18
2019-05-25T02:40:31.663Z,18.18
2019-05-25T02:43:02.745Z,18.19
2019-05-25T02:45:33.807Z,18.19
2019-05-25T02:48:04.961Z,18.18
2019-05-25T02:50:36.062Z,18.17
2019-05-25T02:53:07.214Z,18.19
2019-05-25T02:55:38.245Z,18.27
2019-05-25T02:58:09.143Z,18.31
2019-05-25T03:00:40.139Z,18.35
2019-05-25T03:03:11.181Z,18.39
2019-05-25T03:05:42.319Z,18.42
2019-05-25T03:08:13.426Z,18.46
2019-05-25T03:10:44.578Z,18.51
2019-05-25T03:13:16.445Z,18.57
2019-05-25T03:15:47.448Z,18.62
2019-05-25T03:18:18.382Z,18.73
2019-05-25T03:20:49.301Z,18.88
2019-05-25T03:23:20.297Z,19.03
2019-05-25T03:25:51.291Z,19.26
2019-05-25T03:28:22.261Z,19.44
2019-05-25T03:30:53.290Z,19.65
2019-05-25T03:33:24.252Z,19.78
2019-05-25T03:35:55.412Z,19.82
2019-05-25T03:38:26.341Z,19.84
2019-05-25T03:40:57.242Z,19.87
2019-05-25T03:43:28.309Z,19.92
2019-05-25T03:45:59.477Z,20.04
2019-05-25T03:48:30.443Z,20.18
2019-05-25T03:51:01.387Z,20.42
2019-05-25T03:53:32.447Z,20.70
2019-05-25T03:56:06.268Z,21.07
2019-05-25T03:58:36.153Z,21.57
2019-05-25T04:01:07.127Z,22.13
2019-05-25T04:03:38.233Z,23.00
2019-05-25T04:06:09.242Z,23.79
2019-05-25T04:08:40.188Z,24.58
2019-05-25T04:11:11.269Z,25.35
2019-05-25T04:13:42.202Z,25.88
2019-05-25T04:16:13.194Z,25.88
2019-05-25T04:18:44.135Z,26.06
2019-05-25T04:21:15.150Z,26.85
2019-05-25T04:23:46.215Z,27.44
2019-05-25T04:26:22.554Z,27.31
2019-05-25T04:28:50.054Z,26.76
2019-05-25T04:31:21.052Z,25.81
2019-05-25T04:33:52.144Z,24.76
2019-05-25T04:36:23.114Z,23.85
2019-05-25T04:38:54.474Z,23.07
2019-05-25T04:41:25.460Z,22.83
2019-05-25T04:43:56.543Z,22.78
2019-05-25T04:46:27.638Z,22.71
2019-05-25T04:48:58.547Z,22.90
2019-05-25T04:51:29.503Z,23.22
2019-05-25T04:54:00.590Z,23.58
2019-05-25T04:56:39.650Z,23.92
2019-05-25T04:59:04.279Z,23.96
2019-05-25T05:01:35.415Z,23.60
2019-05-25T05:04:10.304Z,23.21
2019-05-25T05:06:41.883Z,22.96
2019-05-25T05:09:13.013Z,22.97
2019-05-25T05:11:44.183Z,23.54
2019-05-25T05:14:15.211Z,23.98
2019-05-25T05:16:46.251Z,24.21
2019-05-25T05:19:17.207Z,24.66
2019-05-25T05:21:48.322Z,25.20
2019-05-25T05:24:19.302Z,26.04
2019-05-25T05:26:55.613Z,27.29
2019-05-25T05:29:23.066Z,27.95
2019-05-25T05:31:55.776Z,28.14
2019-05-25T05:34:26.778Z,27.54
2019-05-25T05:36:58.431Z,26.82
2019-05-25T05:39:31.829Z,25.91
2019-05-25T05:42:03.571Z,25.62
2019-05-25T05:44:35.318Z,25.46
2019-05-25T05:47:10.273Z,25.27
2019-05-25T05:49:41.192Z,24.99
2019-05-25T05:52:13.958Z,25.05
2019-05-25T05:54:46.594Z,25.58
2019-05-25T05:57:19.043Z,25.75
2019-05-25T05:59:50.211Z,26.05
2019-05-25T06:02:21.901Z,26.07
2019-05-25T06:04:54.931Z,26.43
2019-05-25T06:07:28.705Z,27.78
2019-05-25T06:09:59.755Z,28.75
2019-05-25T06:12:30.836Z,28.83
2019-05-25T06:15:01.945Z,29.54
2019-05-25T06:17:33.002Z,30.20
2019-05-25T06:20:09.684Z,29.90
2019-05-25T06:22:40.731Z,29.40
2019-05-25T06:25:11.838Z,29.98
2019-05-25T06:27:43.081Z,31.10
2019-05-25T06:30:14.239Z,31.74
2019-05-25T06:32:45.387Z,32.95
2019-05-25T06:35:16.462Z,33.51
2019-05-25T06:37:47.441Z,34.19
2019-05-25T06:40:20.753Z,34.41
2019-05-25T06:42:51.696Z,32.61
2019-05-25T06:45:22.789Z,31.04
2019-05-25T06:47:53.798Z,30.20
2019-05-25T06:50:25.147Z,29.64
2019-05-25T06:52:57.952Z,29.12
2019-05-25T06:55:28.943Z,28.72
2019-05-25T06:57:59.996Z,29.33
2019-05-25T07:00:30.978Z,30.84
2019-05-25T07:03:04.566Z,31.86
2019-05-25T07:05:35.635Z,31.64
2019-05-25T07:08:06.714Z,31.19
2019-05-25T07:10:38.615Z,31.19
2019-05-25T07:13:09.811Z,31.94
2019-05-25T07:15:40.925Z,31.80
2019-05-25T07:18:11.936Z,30.53
2019-05-25T07:20:43.022Z,29.03
2019-05-25T07:23:14.155Z,28.13
2019-05-25T07:25:45.296Z,27.73
2019-05-25T07:28:16.283Z,27.28
2019-05-25T07:30:47.263Z,27.07
2019-05-25T07:33:18.297Z,26.98
2019-05-25T07:35:49.306Z,26.78
2019-05-25T07:38:20.337Z,26.70
2019-05-25T07:40:51.397Z,26.48
2019-05-25T07:43:22.370Z,26.30
2019-05-25T07:45:53.351Z,26.05
2019-05-25T07:48:24.406Z,25.94
2019-05-25T07:50:57.599Z,25.79
2019-05-25T07:53:28.633Z,25.56
2019-05-25T07:55:59.622Z,25.44
2019-05-25T07:58:30.625Z,25.24
2019-05-25T08:01:01.659Z,25.19
2019-05-25T08:03:32.739Z,25.35
2019-05-25T08:06:06.789Z,25.65
2019-05-25T08:08:37.755Z,25.63
2019-05-25T08:11:08.777Z,25.79
2019-05-25T08:13:39.904Z,25.89
2019-05-25T08:16:11.016Z,25.93
2019-05-25T08:18:42.129Z,26.06
2019-05-25T08:21:13.120Z,26.09
2019-05-25T08:23:44.141Z,25.66
2019-05-25T08:26:15.555Z,25.22
2019-05-25T08:28:46.494Z,24.88
2019-05-25T08:31:17.512Z,24.75
2019-05-25T08:33:48.482Z,24.56
2019-05-25T08:36:19.623Z,24.51
2019-05-25T08:38:50.554Z,24.78
2019-05-25T08:41:21.563Z,25.42
2019-05-25T08:43:52.745Z,26.13
2019-05-25T08:46:23.761Z,26.52
2019-05-25T08:48:54.744Z,26.38
2019-05-25T08:51:25.768Z,26.26
2019-05-25T08:53:57.057Z,26.48
2019-05-25T08:56:28.018Z,26.68
2019-05-25T08:58:58.950Z,26.79
2019-05-25T09:01:29.914Z,27.08
2019-05-25T09:04:00.910Z,27.51
2019-05-25T09:06:31.886Z,27.74
2019-05-25T09:09:03.494Z,28.02
2019-05-25T09:11:34.499Z,27.94
2019-05-25T09:14:05.512Z,27.81
2019-05-25T09:16:36.492Z,27.99
2019-05-25T09:19:07.616Z,28.29
2019-05-25T09:21:38.600Z,28.19
2019-05-25T09:24:11.150Z,27.94
2019-05-25T09:26:42.144Z,27.64
2019-05-25T09:29:13.187Z,27.49
2019-05-25T09:31:44.146Z,27.48
2019-05-25T09:34:15.038Z,27.44
2019-05-25T09:36:46.022Z,27.33
2019-05-25T09:39:17.048Z,27.13
2019-05-25T09:41:47.971Z,27.04
2019-05-25T09:44:22.078Z,27.26
2019-05-25T09:46:53.063Z,27.68
2019-05-25T09:49:24.163Z,28.13
2019-05-25T09:51:55.171Z,28.25
2019-05-25T09:54:26.175Z,28.20
2019-05-25T09:56:57.319Z,28.19
2019-05-25T09:59:28.511Z,28.12
2019-05-25T10:01:59.447Z,27.86
2019-05-25T10:04:30.659Z,27.56
2019-05-25T10:07:01.628Z,27.29
2019-05-25T10:09:32.718Z,27.15
2019-05-25T10:12:04.236Z,26.90
2019-05-25T10:14:35.356Z,26.62
2019-05-25T10:17:06.374Z,26.73
2019-05-25T10:19:37.369Z,27.05
2019-05-25T10:22:08.446Z,27.26
2019-05-25T10:24:39.459Z,27.20
2019-05-25T10:27:10.451Z,26.72
2019-05-25T10:29:41.496Z,26.28
2019-05-25T10:32:12.859Z,25.85
2019-05-25T10:34:44.065Z,25.55
2019-05-25T10:37:15.235Z,25.21
2019-05-25T10:39:46.428Z,24.85
2019-05-25T10:42:17.426Z,24.59
2019-05-25T10:44:48.474Z,24.33
2019-05-25T10:47:19.463Z,24.03
2019-05-25T10:49:50.450Z,23.70
2019-05-25T10:52:21.409Z,23.34
2019-05-25T10:54:52.447Z,23.06
2019-05-25T10:57:23.446Z,22.77
2019-05-25T10:59:54.550Z,22.78
2019-05-25T11:02:25.539Z,22.97
2019-05-25T11:04:56.639Z,23.28
2019-05-25T11:07:27.746Z,23.56
2019-05-25T11:09:58.698Z,23.82
2019-05-25T11:12:31.291Z,24.12
2019-05-25T11:15:03.805Z,24.35
2019-05-25T11:17:35.021Z,24.24
2019-05-25T11:20:08.113Z,24.20
2019-05-25T11:22:39.086Z,24.27
2019-05-25T11:25:10.442Z,24.41
2019-05-25T11:27:41.346Z,24.37
2019-05-25T11:30:13.877Z,24.48
2019-05-25T11:32:44.978Z,24.63
2019-05-25T11:35:17.628Z,24.79
2019-05-25T11:37:48.678Z,24.94
2019-05-25T11:40:22.259Z,25.14
2019-05-25T11:42:53.291Z,25.24
2019-05-25T11:45:24.571Z,25.33
2019-05-25T11:47:55.583Z,25.46
2019-05-25T11:50:26.607Z,25.62
2019-05-25T11:52:57.605Z,25.58
2019-05-25T11:55:28.695Z,25.17
2019-05-25T11:58:00.106Z,24.67
2019-05-25T12:00:32.138Z,24.16
2019-05-25T12:03:03.208Z,23.45
2019-05-25T12:05:34.182Z,22.85
2019-05-25T12:08:05.171Z,22.38
2019-05-25T12:10:36.433Z,22.14
2019-05-25T12:13:07.526Z,22.21
2019-05-25T12:15:38.416Z,22.17
2019-05-25T12:18:09.500Z,22.29
2019-05-25T12:20:40.549Z,22.30
2019-05-25T12:23:11.734Z,22.23
2019-05-25T12:25:42.886Z,22.16
2019-05-25T12:28:14.232Z,22.07
2019-05-25T12:30:45.169Z,21.95
2019-05-25T12:33:16.219Z,21.81
2019-05-25T12:35:47.128Z,21.77
2019-05-25T12:38:18.146Z,21.71
2019-05-25T12:40:54.196Z,21.80
2019-05-25T12:43:25.686Z,21.96
2019-05-25T12:45:56.751Z,22.01
2019-05-25T12:48:27.815Z,22.17
2019-05-25T12:50:58.787Z,22.23
2019-05-25T12:53:29.786Z,22.50
2019-05-25T12:56:00.848Z,22.79
2019-05-25T12:58:31.872Z,23.15
2019-05-25T13:01:03.202Z,23.34
2019-05-25T13:03:34.230Z,23.36
2019-05-25T13:06:05.187Z,23.48
2019-05-25T13:08:36.177Z,23.56
2019-05-25T13:11:09.647Z,23.36
2019-05-25T13:13:40.207Z,23.43
2019-05-25T13:16:11.237Z,23.51
2019-05-25T13:18:42.395Z,23.82
2019-05-25T13:21:13.542Z,24.02
2019-05-25T13:23:44.578Z,24.11
2019-05-25T13:26:15.618Z,24.14
2019-05-25T13:28:46.534Z,24.04
2019-05-25T13:31:19.127Z,24.00
2019-05-25T13:33:50.221Z,23.96
2019-05-25T13:36:32.645Z,24.14
2019-05-25T13:39:07.587Z,24.30
2019-05-25T13:41:38.552Z,24.50
2019-05-25T13:44:12.842Z,24.58
2019-05-25T13:46:47.341Z,24.66
2019-05-25T13:49:19.026Z,24.67
2019-05-25T13:52:01.156Z,24.54
2019-05-25T13:54:33.160Z,24.48
2019-05-25T13:57:04.308Z,24.48
2019-05-25T13:59:40.103Z,24.54
2019-05-25T14:02:14.135Z,24.50
2019-05-25T14:04:46.171Z,24.51
2019-05-25T14:07:17.431Z,24.55
2019-05-25T14:09:48.587Z,24.54
2019-05-25T14:12:19.766Z,24.58
2019-05-25T14:14:50.903Z,24.60
2019-05-25T14:17:21.956Z,24.63
2019-05-25T14:19:52.972Z,24.72
2019-05-25T14:22:27.240Z,24.74
2019-05-25T14:24:58.402Z,24.75
2019-05-25T14:27:29.585Z,24.83
2019-05-25T14:30:00.581Z,24.97
2019-05-25T14:32:31.629Z,24.93
2019-05-25T14:35:02.693Z,24.81
2019-05-25T14:37:35.340Z,24.80
2019-05-25T14:40:11.086Z,24.83
2019-05-25T14:42:40.594Z,24.79
2019-05-25T14:45:13.531Z,24.66
2019-05-25T14:47:44.588Z,24.64
2019-05-25T14:50:15.572Z,24.57
2019-05-25T14:52:46.730Z,24.49
2019-05-25T14:55:20.965Z,24.43
2019-05-25T14:57:52.063Z,24.41
2019-05-25T15:00:23.140Z,24.39
2019-05-25T15:02:58.665Z,24.37
2019-05-25T15:05:31.262Z,24.36
2019-05-25T15:08:03.787Z,24.24
2019-05-25T15:10:34.839Z,24.16
2019-05-25T15:13:06.360Z,24.01
2019-05-25T15:15:37.639Z,24.02
2019-05-25T15:18:08.663Z,23.90
2019-05-25T15:20:39.727Z,23.87
2019-05-25T15:23:14.070Z,23.80
2019-05-25T15:25:46.011Z,23.80
2019-05-25T15:28:17.136Z,23.81
2019-05-25T15:30:48.093Z,23.71
2019-05-25T15:33:19.503Z,23.68
2019-05-25T15:35:50.787Z,23.62
2019-05-25T15:38:21.880Z,23.64
2019-05-25T15:40:52.907Z,23.61
2019-05-25T15:43:23.796Z,23.55
2019-05-25T15:45:54.867Z,23.50
2019-05-25T15:48:26.486Z,23.33
2019-05-25T15:50:57.724Z,23.15
2019-05-25T15:53:28.769Z,22.97
2019-05-25T15:55:59.838Z,22.85
2019-05-25T15:58:30.894Z,22.72
2019-05-25T16:01:02.046Z,22.66
2019-05-25T16:03:33.148Z,22.57
2019-05-25T16:06:04.156Z,22.49
2019-05-25T16:08:35.399Z,22.37
2019-05-25T16:11:06.631Z,22.33
2019-05-25T16:13:37.723Z,22.28
2019-05-25T16:16:08.866Z,22.16
2019-05-25T16:18:39.819Z,22.10
2019-05-25T16:21:11.157Z,22.02
2019-05-25T16:23:42.224Z,21.92
2019-05-25T16:26:13.289Z,21.85
2019-05-25T16:28:44.269Z,21.65
2019-05-25T16:31:15.410Z,21.46
2019-05-25T16:33:46.421Z,21.28
2019-05-25T16:36:17.461Z,21.14
2019-05-25T16:38:48.590Z,21.04
2019-05-25T16:41:19.737Z,20.92
2019-05-25T16:43:50.721Z,20.83
2019-05-25T16:46:21.771Z,20.71
2019-05-25T16:48:52.768Z,20.60
2019-05-25T16:51:23.852Z,20.53
2019-05-25T16:53:54.847Z,20.47
2019-05-25T16:56:25.842Z,20.39
2019-05-25T16:58:56.834Z,20.29
2019-05-25T17:01:46.515Z,20.22
2019-05-25T17:04:01.201Z,20.08
2019-05-25T17:06:32.223Z,19.97
2019-05-25T17:09:03.850Z,19.86
2019-05-25T17:11:34.805Z,19.76
2019-05-25T17:14:05.755Z,19.65
2019-05-25T17:16:36.844Z,19.59
2019-05-25T17:19:07.889Z,19.51
2019-05-25T17:21:38.985Z,19.43
2019-05-25T17:24:09.963Z,19.39
2019-05-25T17:26:41.019Z,19.35
2019-05-25T17:29:12.025Z,19.31
2019-05-25T17:31:43.040Z,19.27
2019-05-25T17:34:14.028Z,19.28
2019-05-25T17:36:45.040Z,19.20
2019-05-25T17:39:16.194Z,19.15
2019-05-25T17:41:47.092Z,19.10
2019-05-25T17:44:19.011Z,19.13
2019-05-25T17:46:50.045Z,19.10
2019-05-25T17:49:21.073Z,19.04
2019-05-25T17:51:52.532Z,19.00
2019-05-25T17:54:23.686Z,18.95
2019-05-25T17:56:54.927Z,18.94
2019-05-25T17:59:25.921Z,18.91
2019-05-25T18:01:57.736Z,18.86
2019-05-25T18:04:28.940Z,18.80
2019-05-25T18:07:00.019Z,18.74
2019-05-25T18:09:31.113Z,18.66
2019-05-25T18:12:02.421Z,18.62
2019-05-25T18:14:34.845Z,18.61
2019-05-25T18:17:06.231Z,18.58
2019-05-25T18:19:37.652Z,18.61
2019-05-25T18:22:09.026Z,18.60
2019-05-25T18:24:40.367Z,18.58
2019-05-25T18:27:11.589Z,18.54
2019-05-25T18:29:42.641Z,18.47
2019-05-25T18:32:13.839Z,18.42
2019-05-25T18:34:44.819Z,18.33
2019-05-25T18:37:16.018Z,18.28
2019-05-25T18:39:48.231Z,18.24
2019-05-25T18:42:20.190Z,18.17
2019-05-25T18:44:51.410Z,18.12
2019-05-25T18:47:22.628Z,18.05
2019-05-25T18:49:53.707Z,17.95
2019-05-25T18:52:24.865Z,17.94
2019-05-25T18:54:55.937Z,17.91
2019-05-25T18:57:27.293Z,17.89
2019-05-25T18:59:59.758Z,17.86
2019-05-25T19:02:31.914Z,17.81
2019-05-25T19:05:03.237Z,17.80
2019-05-25T19:07:37.805Z,17.77
2019-05-25T19:10:09.878Z,17.75
2019-05-25T19:12:41.415Z,17.80
2019-05-25T19:15:12.870Z,17.84
2019-05-25T19:17:44.106Z,17.90
2019-05-25T19:20:21.412Z,17.96
2019-05-25T19:23:10.906Z,17.97
2019-05-25T19:25:44.599Z,18.02
2019-05-25T19:28:15.698Z,18.08
2019-05-25T19:30:46.788Z,18.15
2019-05-25T19:33:17.777Z,18.23
2019-05-25T19:35:54.153Z,18.31
2019-05-25T19:38:24.264Z,18.35
2019-05-25T19:40:55.389Z,18.36
2019-05-25T19:43:28.058Z,18.32
2019-05-25T19:45:59.207Z,18.37
2019-05-25T19:48:30.475Z,18.34
2019-05-25T19:51:01.797Z,18.31
2019-05-25T19:53:32.872Z,18.26
2019-05-25T19:56:04.073Z,18.24
2019-05-25T19:58:38.126Z,18.22
2019-05-25T20:01:09.386Z,18.22
2019-05-25T20:03:40.433Z,18.18
2019-05-25T20:06:11.703Z,18.17
2019-05-25T20:08:42.998Z,18.20
2019-05-25T20:11:14.067Z,18.22
2019-05-25T20:13:45.151Z,18.24
2019-05-25T20:16:16.194Z,18.27
2019-05-25T20:18:47.341Z,18.27
2019-05-25T20:21:18.510Z,18.25
2019-05-25T20:23:49.589Z,18.24
2019-05-25T20:26:20.696Z,18.28
2019-05-25T20:28:51.823Z,18.29
2019-05-25T20:31:24.370Z,18.32
2019-05-25T20:33:55.574Z,18.29
2019-05-25T20:36:26.744Z,18.25
2019-05-25T20:38:57.851Z,18.22
2019-05-25T20:41:28.914Z,18.17
2019-05-25T20:43:59.963Z,18.13
2019-05-25T20:46:31.101Z,18.09
2019-05-25T20:49:02.186Z,18.06
2019-05-25T20:51:33.235Z,18.05
2019-05-25T20:54:05.198Z,18.03
2019-05-25T20:56:36.310Z,18.00
2019-05-25T20:59:07.561Z,17.99
2019-05-25T21:01:38.593Z,17.95
2019-05-25T21:04:09.587Z,17.99
2019-05-25T21:06:40.651Z,18.01
2019-05-25T21:09:11.698Z,18.01
2019-05-25T21:11:42.674Z,18.01
2019-05-25T21:14:13.634Z,18.01
2019-05-25T21:16:44.620Z,18.02
2019-05-25T21:19:15.634Z,18.00
2019-05-25T21:21:46.710Z,17.99
2019-05-25T21:24:17.786Z,17.94
2019-05-25T21:26:48.958Z,17.93
2019-05-25T21:29:20.011Z,17.91
2019-05-25T21:31:51.109Z,17.87
2019-05-25T21:34:22.214Z,17.83
2019-05-25T21:36:54.027Z,17.78
2019-05-25T21:39:25.192Z,17.75
2019-05-25T21:41:56.338Z,17.69
2019-05-25T21:44:27.478Z,17.67
2019-05-25T21:46:58.440Z,17.66
2019-05-25T21:49:29.564Z,17.66
2019-05-25T21:52:00.612Z,17.62
2019-05-25T21:54:31.645Z,17.58
2019-05-25T21:57:02.680Z,17.54
2019-05-25T21:59:33.745Z,17.50
2019-05-25T22:02:04.844Z,17.48
2019-05-25T22:04:35.893Z,17.47
2019-05-25T22:07:06.907Z,17.48
2019-05-25T22:09:37.920Z,17.49
2019-05-25T22:12:09.117Z,17.49
2019-05-25T22:14:40.178Z,17.49
2019-05-25T22:17:11.535Z,17.50
2019-05-25T22:19:42.525Z,17.55
2019-05-25T22:22:14.259Z,17.50
2019-05-25T22:24:45.289Z,17.55
2019-05-25T22:27:16.493Z,17.49
2019-05-25T22:29:47.712Z,17.57
2019-05-25T22:32:18.878Z,17.59
2019-05-25T22:34:49.917Z,17.59
2019-05-25T22:37:20.975Z,17.58
2019-05-25T22:39:52.053Z,17.62
2019-05-25T22:42:23.034Z,17.66
2019-05-25T22:44:54.067Z,17.68
2019-05-25T22:47:26.260Z,17.69
2019-05-25T22:49:57.387Z,17.70
2019-05-25T22:52:28.552Z,17.70
2019-05-25T22:54:59.780Z,17.68
2019-05-25T22:57:30.890Z,17.68
2019-05-25T23:00:02.117Z,17.66
2019-05-25T23:02:33.386Z,17.65
2019-05-25T23:05:08.109Z,17.61
2019-05-25T23:07:39.205Z,17.61
2019-05-25T23:10:11.320Z,17.60
2019-05-25T23:12:42.358Z,17.58
2019-05-25T23:15:14.320Z,17.59
2019-05-25T23:17:45.451Z,17.56
2019-05-25T23:20:17.186Z,17.51
2019-05-25T23:22:49.377Z,17.48
2019-05-25T23:25:20.484Z,17.39
2019-05-25T23:27:51.495Z,17.35
2019-05-25T23:30:22.644Z,17.33
2019-05-25T23:32:53.839Z,17.30
2019-05-25T23:35:24.929Z,17.28
2019-05-25T23:37:56.011Z,17.27
2019-05-25T23:40:27.049Z,17.22
2019-05-25T23:42:58.113Z,17.18
2019-05-25T23:45:30.148Z,17.14
2019-05-25T23:48:01.078Z,17.13
2019-05-25T23:50:32.134Z,17.12
2019-05-25T23:53:03.233Z,17.10
2019-05-25T23:55:34.388Z,17.09
2019-05-25T23:58:05.606Z,17.02
